Latest Weather Observations for Mornington Island Airport

IDQ60801

Issued at 11:32 pm EST Saturday 27 August 2016 (issued every 30 minutes, with the page automatically refreshed every 10 minutes)

About weather observations | Map of weather stations | Latest weather observations for QLD | Other Formats
Station Details ID: 029182 Name: MORNINGTON ISLAND AIRPORT Lat: -16.66 Lon: 139.17 Height: 9.0 m
Data from the previous 72 hours. | See also: Recent months at Mornington Island Airport
Date/Time
EST
Temp
°C
App
Temp
°C
Dew
Point
°C
Rel
Hum
%
Delta-T
°C
Wind Press
QNH
hPa
Press
MSL
hPa
Rain since
9am
mm
Dir  Spd
km/h
Gust
km/h
Spd
kts
Gust
kts
27/11:30pm 18.9 18.0 12.6 67 3.5 S 9 11 5 6 1017.0 1016.9 0.0
27/11:00pm 18.6 18.2 14.1 75 2.6 S 9 13 5 7 1017.0 1016.9 0.0
27/10:30pm 16.9 16.1 13.0 78 2.2 SSE 9 11 5 6 1017.0 1016.9 0.0
27/10:00pm 15.2 13.9 10.0 71 2.7 SSE 7 11 4 6 1017.1 1017.0 0.0
27/09:30pm 16.1 14.9 10.2 68 3.1 SE 7 7 4 4 1017.2 1017.1 0.0
27/09:00pm 16.2 14.9 10.1 67 3.2 SE 7 7 4 4 1017.2 1017.1 0.0
27/08:30pm 16.9 15.6 10.1 64 3.6 ESE 7 9 4 5 1016.9 1016.8 0.0
27/08:00pm 17.8 16.8 10.2 61 4.0 ESE 6 7 3 4 1016.7 1016.6 0.0
27/07:30pm 18.7 17.9 11.0 61 4.2 ESE 6 7 3 4 1016.4 1016.3 0.0
27/07:00pm 21.0 20.0 11.1 53 5.4 ESE 7 11 4 6 1016.3 1016.2 0.0
27/06:30pm 22.2 20.2 10.0 46 6.6 SE 11 17 6 9 1016.0 1015.9 0.0
27/06:00pm 23.1 20.4 8.8 40 7.6 SE 13 20 7 11 1015.8 1015.7 0.0
27/05:30pm 23.9 20.7 8.3 37 8.3 SE 15 22 8 12 1015.8 1015.7 0.0
27/05:00pm 24.0 19.7 7.2 34 8.8 SSE 19 28 10 15 1016.0 1015.9 0.0
27/04:30pm 24.4 20.5 7.1 33 9.0 SSE 17 26 9 14 1016.0 1015.9 0.0
27/04:00pm 24.2 19.2 6.5 32 9.1 SSE 22 35 12 19 1016.1 1016.0 0.0
27/03:30pm 23.9 18.8 6.2 32 9.1 SSE 22 35 12 19 1016.3 1016.2 0.0
27/03:00pm 23.8 18.8 6.6 33 8.9 SSE 22 39 12 21 1016.5 1016.4 0.0
27/02:30pm 23.6 18.3 6.8 34 8.7 SSE 24 37 13 20 1017.0 1016.9 0.0
27/02:00pm 23.4 18.2 7.1 35 8.4 S 24 41 13 22 1017.5 1017.4 0.0
27/01:30pm 23.4 18.4 7.9 37 8.2 SSE 24 39 13 21 1017.9 1017.8 0.0
27/01:00pm 23.1 17.6 7.6 37 8.1 SSE 26 41 14 22 1018.3 1018.2 0.0
27/12:30pm 23.3 17.9 7.8 37 8.1 SSE 26 43 14 23 1019.0 1018.9 0.0
27/12:00pm 22.6 17.0 8.7 41 7.4 SSE 28 46 15 25 1019.4 1019.3 0.0
27/11:52am 22.1 16.4 8.2 41 7.3 SSE 28 46 15 25 1019.5 1019.4 0.0
27/11:30am 21.7 16.1 8.6 43 6.9 SSE 28 43 15 23 1020.0 1019.9 0.0
27/11:00am 22.4 17.6 8.9 42 7.2 SSE 24 43 13 23 1020.2 1020.1 0.0
27/10:30am 21.8 16.3 9.0 44 6.8 SSE 28 43 15 23 1020.2 1020.1 0.0
27/10:10am 21.5 15.5 7.0 39 7.4 SE 28 46 15 25 1020.2 1020.1 0.0
27/10:00am 21.6 15.5 6.7 38 7.6 SE 28 44 15 24 1020.2 1020.1 0.0
27/09:42am 21.4 15.2 8.0 42 7.0 SE 30 48 16 26 1020.2 1020.1 0.0
27/09:30am 21.1 14.7 7.0 40 7.2 SE 30 46 16 25 1020.1 1020.0 0.0
27/09:00am 20.6 14.3 7.6 43 6.7 SE 30 48 16 26 1019.9 1019.8 0.0
27/08:30am 20.4 14.3 8.4 46 6.3 SE 30 46 16 25 1019.7 1019.6 0.0
27/08:00am 19.9 14.0 8.9 49 5.8 SE 30 48 16 26 1019.5 1019.4 0.0
27/07:54am 19.9 13.9 8.6 48 5.9 SE 30 48 16 26 1019.5 1019.4 0.0
27/07:30am 19.6 13.4 8.0 47 6.0 SE 30 44 16 24 1019.2 1019.1 0.0
27/07:02am 19.3 13.4 7.7 47 5.9 SE 28 50 15 27 1018.7 1018.6 0.0
27/07:00am 19.2 13.7 7.6 47 5.9 SE 26 43 14 23 1018.7 1018.6 0.0
27/06:30am 19.4 12.8 7.8 47 5.9 SE 32 52 17 28 1018.2 1018.1 0.0
27/06:01am 19.7 13.8 7.4 45 6.3 SE 28 48 15 26 1018.0 1017.9 0.0
27/06:00am 19.6 14.1 7.7 46 6.1 SE 26 46 14 25 1018.1 1018.0 0.0
27/05:44am 19.6 13.7 7.7 46 6.1 SE 28 46 15 25 1018.0 1017.9 0.0
27/05:30am 19.7 14.0 6.8 43 6.5 SE 26 43 14 23 1017.9 1017.8 0.0
27/05:00am 19.8 14.4 8.2 47 6.0 SE 26 44 14 24 1017.8 1017.7 0.0
27/04:30am 20.0 14.2 8.0 46 6.2 SE 28 46 15 25 1017.6 1017.5 0.0
27/04:01am 20.0 14.2 8.0 46 6.2 SE 28 46 15 25 1017.7 1017.6 0.0
27/04:00am 20.0 13.8 8.0 46 6.2 SE 30 46 16 25 1017.7 1017.6 0.0
27/03:30am 20.1 14.6 7.5 44 6.5 SE 26 43 14 23 1017.7 1017.6 0.0
27/03:00am 20.2 14.3 7.6 44 6.5 SE 28 48 15 26 1017.9 1017.8 0.0
27/02:53am 20.2 14.4 7.9 45 6.4 SE 28 48 15 26 1017.9 1017.8 0.0
27/02:30am 20.3 14.4 7.7 44 6.5 SE 28 44 15 24 1017.9 1017.8 0.0
27/02:00am 20.8 14.6 6.0 38 7.4 SE 28 44 15 24 1018.2 1018.1 0.0
27/01:41am 21.0 14.3 5.4 36 7.7 SE 30 54 16 29 1018.2 1018.1 0.0
27/01:30am 21.2 14.5 5.6 36 7.8 SE 30 44 16 24 1018.3 1018.2 0.0
27/01:00am 21.2 15.6 5.6 36 7.7 SE 24 39 13 21 1018.3 1018.2 0.0
27/12:30am 21.5 15.9 5.4 35 8.0 SE 24 41 13 22 1018.2 1018.1 0.0
27/12:00am 21.4 16.3 7.6 41 7.1 SE 24 41 13 22 1018.2 1018.1 0.0
 
Date/Time
EST
Temp
°C
App
Temp
°C
Dew
Point
°C
Rel
Hum
%
Delta-T
°C
Wind Press
QNH
hPa
Press
MSL
hPa
Rain since
9am
mm
Dir  Spd
km/h
Gust
km/h
Spd
kts
Gust
kts
26/11:30pm 21.5 16.7 7.3 40 7.3 SE 22 33 12 18 1018.4 1018.3 0.0
26/11:00pm 22.0 16.1 5.8 35 8.1 SSE 26 43 14 23 1018.2 1018.1 0.0
26/10:30pm 22.2 17.1 6.0 35 8.2 SSE 22 37 12 20 1018.1 1018.0 0.0
26/10:00pm 22.4 17.2 5.4 33 8.5 SSE 22 37 12 20 1018.0 1017.9 0.0
26/09:30pm 22.8 17.6 5.7 33 8.6 SSE 22 37 12 20 1018.0 1017.9 0.0
26/09:00pm 22.7 18.4 7.7 38 7.8 SSE 20 30 11 16 1017.8 1017.7 0.0
26/08:30pm 23.1 18.5 6.4 34 8.5 SSE 20 39 11 21 1017.5 1017.4 0.0
26/08:00pm 22.9 19.0 8.6 40 7.6 SSE 19 30 10 16 1017.1 1017.0 0.0
26/07:30pm 20.8 19.3 10.6 52 5.6 SE 9 17 5 9 1016.8 1016.7 0.0
26/07:00pm 21.4 18.3 8.7 44 6.7 ESE 15 19 8 10 1016.5 1016.4 0.0
26/06:30pm 22.0 18.4 8.2 41 7.2 ESE 17 22 9 12 1016.1 1016.0 0.0
26/06:00pm 23.0 18.8 7.5 37 8.1 ESE 19 30 10 16 1015.8 1015.7 0.0
26/05:30pm 23.8 19.2 6.6 33 8.9 ESE 20 28 11 15 1015.6 1015.5 0.0
26/05:00pm 23.9 19.3 6.7 33 8.9 SE 20 32 11 17 1015.4 1015.3 0.0
26/04:30pm 24.3 18.7 5.6 30 9.5 SE 24 37 13 20 1015.2 1015.1 0.0
26/04:00pm 24.3 18.4 4.1 27 10.0 SE 24 37 13 20 1015.3 1015.2 0.0
26/03:30pm 24.8 19.0 6.1 30 9.6 SSE 26 39 14 21 1015.5 1015.4 0.0
26/03:00pm 24.7 19.5 7.4 33 9.1 SSE 24 41 13 22 1015.6 1015.5 0.0
26/02:46pm 24.1 17.8 5.5 30 9.4 SSE 28 46 15 25 1015.9 1015.8 0.0
26/02:30pm 24.5 18.6 5.8 30 9.5 SSE 26 48 14 26 1016.1 1016.0 0.0
26/02:00pm 23.8 18.5 7.0 34 8.7 SSE 24 44 13 24 1016.5 1016.4 0.0
26/01:30pm 23.0 17.8 7.1 36 8.2 SSE 24 44 13 24 1017.0 1016.9 0.0
26/01:00pm 22.8 17.8 8.1 39 7.7 SSE 24 39 13 21 1017.7 1017.6 0.0
26/12:38pm 21.5 15.3 6.2 37 7.7 SSE 28 46 15 25 1017.9 1017.8 0.0
26/12:30pm 22.4 17.0 7.8 39 7.6 SSE 26 43 14 23 1018.0 1017.9 0.0
26/12:11pm 22.0 15.7 7.4 39 7.6 SSE 30 48 16 26 1018.0 1017.9 0.0
26/12:00pm 22.0 15.2 7.0 38 7.7 SSE 32 44 17 24 1018.1 1018.0 0.0
26/11:30am 21.5 15.3 6.2 37 7.7 SSE 28 46 15 25 1018.5 1018.4 0.0
26/11:08am 21.7 15.7 8.6 43 6.9 SSE 30 48 16 26 1018.7 1018.6 0.0
26/11:00am 21.4 14.9 8.0 42 7.0 SSE 32 46 17 25 1018.8 1018.7 0.0
26/10:30am 21.2 14.9 9.1 46 6.4 SSE 32 50 17 27 1019.0 1018.9 0.0
26/10:12am 21.3 15.6 8.2 43 6.8 SSE 28 50 15 27 1019.1 1019.0 0.0
26/10:00am 21.2 15.9 9.8 48 6.1 SSE 28 43 15 23 1019.1 1019.0 0.0
26/09:40am 20.4 14.7 8.4 46 6.3 SSE 28 52 15 28 1019.2 1019.1 0.0
26/09:30am 20.6 15.6 9.5 49 5.9 SSE 26 44 14 24 1019.2 1019.1 0.0
26/09:11am 19.9 13.9 8.6 48 5.9 SSE 30 56 16 30 1019.3 1019.2 0.0
26/09:00am 20.1 13.7 8.4 47 6.1 SSE 32 46 17 25 1019.3 1019.2 0.0
26/08:30am 19.8 13.9 9.1 50 5.6 SSE 30 48 16 26 1019.1 1019.0 0.0
26/08:05am 19.4 13.6 8.1 48 5.8 SSE 28 50 15 27 1018.9 1018.8 0.0
26/08:00am 19.5 14.3 8.8 50 5.6 SSE 26 52 14 28 1018.9 1018.8 0.0
26/07:30am 19.1 13.0 8.1 49 5.7 SSE 30 50 16 27 1018.7 1018.6 0.0
26/07:00am 18.8 13.0 7.9 49 5.6 SSE 28 46 15 25 1018.4 1018.3 0.0
26/06:30am 18.9 13.1 8.0 49 5.6 SSE 28 46 15 25 1018.1 1018.0 0.0
26/06:00am 19.1 12.9 7.8 48 5.8 SSE 30 50 16 27 1017.6 1017.5 0.0
26/05:57am 19.2 13.5 8.2 49 5.7 SSE 28 46 15 25 1017.6 1017.5 0.0
26/05:30am 19.4 13.4 8.7 50 5.6 SSE 30 46 16 25 1017.4 1017.3 0.0
26/05:00am 19.8 13.3 8.2 47 6.0 SSE 32 50 17 27 1016.9 1016.8 0.0
26/04:30am 19.9 14.0 7.3 44 6.4 SSE 28 52 15 28 1016.7 1016.6 0.0
26/04:00am 20.3 13.9 7.0 42 6.7 SSE 30 52 16 28 1016.4 1016.3 0.0
26/03:36am 20.7 14.2 6.6 40 7.1 SSE 30 48 16 26 1016.4 1016.3 0.0
26/03:30am 20.7 15.1 7.3 42 6.9 SSE 26 43 14 23 1016.4 1016.3 0.0
26/03:01am 21.2 15.0 6.3 38 7.5 SSE 28 48 15 26 1016.3 1016.2 0.0
26/03:00am 21.2 15.0 6.3 38 7.5 SSE 28 44 15 24 1016.3 1016.2 0.0
26/02:51am 21.4 15.2 6.1 37 7.7 SSE 28 46 15 25 1016.2 1016.1 0.0
26/02:30am 21.3 16.5 7.2 40 7.2 S 22 43 12 23 1016.1 1016.0 0.0
26/02:00am 21.6 16.9 7.8 41 7.2 S 22 39 12 21 1015.8 1015.7 0.0
26/01:30am 21.9 17.2 7.7 40 7.4 S 22 39 12 21 1015.7 1015.6 0.0
26/01:00am 22.1 18.2 7.1 38 7.7 S 17 28 9 15 1015.7 1015.6 0.0
26/12:30am 22.3 18.4 6.9 37 7.9 S 17 26 9 14 1015.7 1015.6 0.0
26/12:00am 22.3 19.0 8.1 40 7.4 S 15 26 8 14 1015.8 1015.7 0.0
 
Date/Time
EST
Temp
°C
App
Temp
°C
Dew
Point
°C
Rel
Hum
%
Delta-T
°C
Wind Press
QNH
hPa
Press
MSL
hPa
Rain since
9am
mm
Dir  Spd
km/h
Gust
km/h
Spd
kts
Gust
kts
25/11:30pm 22.9 18.7 7.4 37 8.1 SSE 19 28 10 15 1015.8 1015.7 0.0
25/11:00pm 22.6 19.5 9.0 42 7.3 S 15 22 8 12 1015.8 1015.7 0.0
25/10:30pm 21.5 21.9 16.2 72 3.2 SSE 9 15 5 8 1015.4 1015.3 0.0
25/10:00pm 20.6 21.0 15.2 71 3.2 SE 7 11 4 6 1015.1 1015.0 0.0
25/09:30pm 20.4 20.4 14.3 68 3.5 SE 7 9 4 5 1015.0 1014.9 0.0
25/09:00pm 21.3 20.7 14.5 65 4.0 ESE 11 15 6 8 1014.4 1014.3 0.0
25/08:30pm 21.4 20.6 14.1 63 4.2 ESE 11 15 6 8 1014.2 1014.1 0.0
25/08:00pm 21.9 20.7 14.0 61 4.6 ESE 13 17 7 9 1014.0 1013.9 0.0
25/07:30pm 22.3 20.6 13.6 58 5.0 ESE 15 19 8 10 1013.7 1013.6 0.0
25/07:00pm 22.9 20.6 13.1 54 5.6 ESE 17 20 9 11 1013.5 1013.4 0.0
25/06:30pm 23.3 21.5 13.2 53 5.8 ESE 15 20 8 11 1013.4 1013.3 0.0
25/06:00pm 23.7 20.7 12.0 48 6.6 ESE 19 28 10 15 1013.0 1012.9 0.0
25/05:30pm 23.6 20.7 12.9 51 6.2 ESE 20 30 11 16 1012.7 1012.6 0.0
25/05:00pm 23.6 21.0 13.8 54 5.7 SE 20 28 11 15 1012.6 1012.5 0.0
25/04:30pm 24.3 20.8 12.3 47 6.9 SE 22 32 12 17 1012.5 1012.4 0.0
25/04:00pm 24.2 20.9 12.8 49 6.6 SE 22 32 12 17 1012.5 1012.4 0.0
25/03:30pm 23.9 21.1 13.2 51 6.2 SSE 20 32 11 17 1012.6 1012.5 0.0
25/03:00pm 23.9 21.0 14.0 54 5.8 SE 22 32 12 17 1013.0 1012.9 0.0
25/02:30pm 23.3 19.7 12.9 52 6.0 SE 24 37 13 20 1013.2 1013.1 0.0
25/02:00pm 22.7 19.1 13.2 55 5.5 SSE 24 41 13 22 1013.6 1013.5 0.0
25/01:30pm 22.7 19.7 13.7 56 5.2 SSE 22 39 12 21 1013.9 1013.8 0.0
25/01:00pm 22.0 18.7 13.9 60 4.7 SSE 24 35 13 19 1014.2 1014.1 0.0
25/12:30pm 22.0 18.5 14.4 62 4.5 SSE 26 39 14 21 1014.5 1014.4 0.0
25/12:00pm 22.3 19.3 14.9 63 4.4 SSE 24 41 13 22 1015.0 1014.9 0.0
25/11:30am 21.4 18.0 14.8 66 3.9 SSE 26 43 14 23 1015.3 1015.2 0.0
25/11:00am 20.8 17.0 14.7 68 3.6 SSE 28 46 15 25 1015.6 1015.5 0.0
25/10:52am 21.0 17.3 15.1 69 3.5 SSE 28 46 15 25 1015.6 1015.5 0.0
25/10:30am 20.7 17.1 15.3 71 3.2 SSE 28 44 15 24 1015.7 1015.6 0.0
25/10:00am 20.7 18.0 15.5 72 3.1 SSE 24 41 13 22 1015.5 1015.4 0.0
25/09:30am 20.5 17.7 15.3 72 3.1 SSE 24 39 13 21 1015.3 1015.2 0.0
25/09:00am 20.7 17.8 16.1 75 2.8 SSE 26 41 14 22 1015.2 1015.1 1.4
25/08:30am 20.5 18.1 16.3 77 2.5 SSE 24 44 13 24 1015.0 1014.9 1.4
25/08:00am 20.9 19.1 16.1 74 2.9 SSE 20 35 11 19 1014.8 1014.7 1.4
25/07:30am 20.9 19.0 16.7 77 2.5 SE 22 37 12 20 1014.5 1014.4 1.4
25/07:00am 21.0 19.5 16.8 77 2.6 SSE 20 39 11 21 1013.9 1013.8 1.4
25/06:30am 21.1 19.6 16.7 76 2.7 SE 20 35 11 19 1013.4 1013.3 1.4
25/06:00am 21.2 19.2 16.4 74 2.9 SE 22 35 12 19 1013.1 1013.0 1.4
25/05:30am 21.4 19.1 16.6 74 2.9 SE 24 39 13 21 1012.9 1012.8 1.4
25/05:00am 21.5 19.5 16.5 73 3.0 SE 22 35 12 19 1012.8 1012.7 1.4
25/04:30am 21.7 19.4 16.6 73 3.1 SSE 24 41 13 22 1012.4 1012.3 1.4
25/04:00am 21.7 19.6 17.1 75 2.8 SE 24 39 13 21 1012.3 1012.2 1.4
25/03:30am 21.7 19.8 17.7 78 2.5 SE 24 39 13 21 1012.1 1012.0 1.4
25/03:00am 21.8 18.3 17.4 76 2.7 SE 32 46 17 25 1011.5 1011.4 1.4
25/02:30am 22.0 20.0 18.2 79 2.4 SE 26 37 14 20 1012.0 1011.9 1.4
25/02:00am 22.2 21.5 19.6 85 1.7 SE 22 37 12 20 1012.4 1012.3 1.4
25/01:30am 22.4 21.5 19.9 86 1.6 SE 24 35 13 19 1012.6 1012.5 1.4
25/01:00am 22.7 21.6 20.2 86 1.6 SE 26 41 14 22 1012.6 1012.5 1.4
25/12:30am 23.1 23.3 21.4 90 1.1 SE 22 39 12 21 1012.7 1012.6 1.4
25/12:00am 23.5 24.8 22.3 93 0.8 SSE 19 28 10 15 1012.5 1012.4 1.4

Other Formats:

Comma delimited format used in spreadsheet applications
http://www.bom.gov.au/fwo/IDQ60801/IDQ60801.94254.axf

JavaScript Object Notation format (JSON) in row-major order
http://www.bom.gov.au/fwo/IDQ60801/IDQ60801.94254.json